createdAt,value
2023-05-06T00:02:56.532Z,13.72
2023-05-06T00:07:59.358Z,13.78
2023-05-06T00:13:03.620Z,13.89
2023-05-06T00:18:06.518Z,13.87
2023-05-06T00:23:09.047Z,13.40
2023-05-06T00:28:13.160Z,13.28
2023-05-06T00:33:15.697Z,13.06
2023-05-06T00:38:19.526Z,13.53
2023-05-06T00:43:23.409Z,13.57
2023-05-06T00:48:26.267Z,13.70
2023-05-06T00:53:29.321Z,13.63
2023-05-06T00:58:34.457Z,13.64
2023-05-06T01:03:38.006Z,13.76
2023-05-06T01:08:58.475Z,13.54
2023-05-06T01:14:12.608Z,13.29
2023-05-06T01:19:29.179Z,13.42
2023-05-06T01:24:43.049Z,13.52
2023-05-06T01:29:48.107Z,13.61
2023-05-06T01:34:56.831Z,13.62
2023-05-06T01:40:04.118Z,13.56
2023-05-06T01:45:10.869Z,13.57
2023-05-06T01:50:14.007Z,13.39
2023-05-06T01:55:17.962Z,13.60
2023-05-06T02:00:20.509Z,13.21
2023-05-06T02:05:23.075Z,12.99
2023-05-06T02:10:31.831Z,12.53
2023-05-06T02:15:38.452Z,12.87
2023-05-06T02:20:42.780Z,13.08
2023-05-06T02:25:52.441Z,13.03
2023-05-06T02:30:58.656Z,13.06
2023-05-06T02:36:01.207Z,12.78
2023-05-06T02:41:05.136Z,12.95
2023-05-06T02:46:08.286Z,13.03
2023-05-06T02:51:10.906Z,13.02
2023-05-06T02:56:14.895Z,12.99
2023-05-06T03:01:17.473Z,12.73
2023-05-06T03:06:20.049Z,12.49
2023-05-06T03:11:24.102Z,12.94
2023-05-06T03:16:27.457Z,12.69
2023-05-06T03:21:33.845Z,12.34
2023-05-06T03:26:37.850Z,12.43
2023-05-06T03:31:41.820Z,12.21
2023-05-06T03:36:44.722Z,12.76
2023-05-06T03:41:49.120Z,12.62
2023-05-06T03:46:53.554Z,12.66
2023-05-06T03:51:56.405Z,12.11
2023-05-06T03:57:02.421Z,12.57
2023-05-06T04:02:06.414Z,12.47
2023-05-06T04:07:12.319Z,12.76
2023-05-06T04:12:16.318Z,12.65
2023-05-06T04:17:39.002Z,12.27
2023-05-06T04:23:02.648Z,12.67
2023-05-06T04:28:27.009Z,12.54
2023-05-06T04:33:50.203Z,12.81
2023-05-06T04:39:18.030Z,12.47
2023-05-06T04:44:43.528Z,12.52
2023-05-06T04:50:07.400Z,12.46
2023-05-06T04:55:30.057Z,12.71
2023-05-06T05:00:54.394Z,12.76
2023-05-06T05:05:57.145Z,12.59
2023-05-06T05:11:02.295Z,12.63
2023-05-06T05:16:08.298Z,12.65
2023-05-06T05:21:13.917Z,12.81
2023-05-06T05:26:16.873Z,12.67
2023-05-06T05:31:23.582Z,12.56
2023-05-06T05:36:27.593Z,12.66
2023-05-06T05:41:32.376Z,12.85
2023-05-06T05:46:36.876Z,12.87
2023-05-06T05:51:40.939Z,13.03
2023-05-06T05:56:44.933Z,13.16
2023-05-06T06:01:48.968Z,13.32
2023-05-06T06:06:51.654Z,13.32
2023-05-06T06:11:55.067Z,13.38
2023-05-06T06:16:59.556Z,13.66
2023-05-06T06:22:02.222Z,13.70
2023-05-06T06:27:08.273Z,13.77
2023-05-06T06:32:12.843Z,13.95
2023-05-06T06:37:15.545Z,14.01
2023-05-06T06:42:18.489Z,14.14
2023-05-06T06:47:35.524Z,14.23
2023-05-06T06:52:38.236Z,14.17
2023-05-06T06:57:41.296Z,14.40
2023-05-06T07:02:47.974Z,14.51
2023-05-06T07:07:50.633Z,14.66
2023-05-06T07:12:54.030Z,14.86
2023-05-06T07:17:58.102Z,14.97
2023-05-06T07:23:01.011Z,15.07
2023-05-06T07:28:03.767Z,15.21
2023-05-06T07:33:08.292Z,14.97
2023-05-06T07:38:10.905Z,15.36
2023-05-06T07:43:13.484Z,15.52
2023-05-06T07:48:19.955Z,15.70
2023-05-06T07:53:22.919Z,15.56
2023-05-06T07:58:25.781Z,15.83
2023-05-06T08:03:30.985Z,15.77
2023-05-06T08:08:33.960Z,16.12
2023-05-06T08:13:36.554Z,16.13
2023-05-06T08:18:40.440Z,16.31
2023-05-06T08:23:42.996Z,16.41
2023-05-06T08:28:45.580Z,16.56
2023-05-06T08:33:49.604Z,16.87
2023-05-06T08:38:52.171Z,17.00
2023-05-06T08:43:55.751Z,17.02
2023-05-06T08:49:00.035Z,17.16
2023-05-06T08:54:03.547Z,17.17
2023-05-06T08:59:09.030Z,17.28
2023-05-06T09:04:14.075Z,17.39
2023-05-06T09:09:17.181Z,17.42
2023-05-06T09:14:21.618Z,17.58
2023-05-06T09:19:25.628Z,17.65
2023-05-06T09:24:28.257Z,17.70
2023-05-06T09:29:30.832Z,17.77
2023-05-06T09:34:35.564Z,17.76
2023-05-06T09:39:38.111Z,17.95
2023-05-06T09:44:40.748Z,18.08
2023-05-06T09:49:44.668Z,18.17
2023-05-06T09:54:48.353Z,18.28
2023-05-06T09:59:51.999Z,18.39
2023-05-06T10:04:57.700Z,18.47
2023-05-06T10:10:01.488Z,18.57
2023-05-06T10:15:05.175Z,18.55
2023-05-06T10:20:13.589Z,18.66
2023-05-06T10:25:24.176Z,18.55
2023-05-06T10:30:28.322Z,18.72
2023-05-06T10:35:43.341Z,18.88
2023-05-06T10:40:47.467Z,18.91
2023-05-06T10:46:06.081Z,19.04
2023-05-06T10:51:29.474Z,19.07
2023-05-06T10:56:33.834Z,19.24
2023-05-06T11:01:38.581Z,19.42
2023-05-06T11:06:46.322Z,19.16
2023-05-06T11:11:51.256Z,19.93
2023-05-06T11:16:55.046Z,20.04
2023-05-06T11:22:01.024Z,20.04
2023-05-06T11:27:03.706Z,20.18
2023-05-06T11:32:19.383Z,20.46
2023-05-06T11:37:28.116Z,20.54
2023-05-06T11:42:31.042Z,20.80
2023-05-06T11:47:33.678Z,20.92
2023-05-06T11:52:37.935Z,21.10
2023-05-06T11:57:46.110Z,21.21
2023-05-06T12:02:48.704Z,21.30
2023-05-06T12:07:52.894Z,21.24
2023-05-06T12:12:56.520Z,21.41
2023-05-06T12:18:02.148Z,21.42
2023-05-06T12:23:11.297Z,21.79
2023-05-06T12:28:17.450Z,21.93
2023-05-06T12:33:20.058Z,21.90
2023-05-06T12:38:23.916Z,22.14
2023-05-06T12:43:31.254Z,22.32
2023-05-06T12:48:33.938Z,22.55
2023-05-06T12:53:37.869Z,22.85
2023-05-06T12:58:40.506Z,22.92
2023-05-06T13:03:43.119Z,22.93
2023-05-06T13:08:47.076Z,22.99
2023-05-06T13:13:49.711Z,23.02
2023-05-06T13:18:52.621Z,23.26
2023-05-06T13:23:56.951Z,23.05
2023-05-06T13:28:59.763Z,23.19
2023-05-06T13:34:02.390Z,23.79
2023-05-06T13:39:06.452Z,24.36
2023-05-06T13:44:10.266Z,24.21
2023-05-06T13:49:13.862Z,24.04
2023-05-06T13:54:18.161Z,23.57
2023-05-06T13:59:20.817Z,23.43
2023-05-06T14:04:23.912Z,23.05
2023-05-06T14:09:27.969Z,22.82
2023-05-06T14:14:30.562Z,22.32
2023-05-06T14:19:33.651Z,22.37
2023-05-06T14:24:37.689Z,22.26
2023-05-06T14:29:42.966Z,22.44
2023-05-06T14:34:45.566Z,22.48
2023-05-06T14:39:49.666Z,22.15
2023-05-06T14:44:52.213Z,22.06
2023-05-06T14:49:54.854Z,22.19
2023-05-06T14:54:59.051Z,21.99
2023-05-06T15:00:03.157Z,21.78
2023-05-06T15:05:07.203Z,21.72
2023-05-06T15:10:11.834Z,21.73
2023-05-06T15:15:14.518Z,21.76
2023-05-06T15:20:17.333Z,21.70
2023-05-06T15:25:34.358Z,21.57
2023-05-06T15:30:38.442Z,21.03
2023-05-06T15:35:41.044Z,20.82
2023-05-06T15:40:50.974Z,20.44
2023-05-06T15:45:53.663Z,19.89
2023-05-06T15:50:56.254Z,19.39
2023-05-06T15:56:13.277Z,19.04
2023-05-06T16:01:31.556Z,19.13
2023-05-06T16:06:44.075Z,18.76
2023-05-06T16:11:48.104Z,18.68
2023-05-06T16:16:50.716Z,18.61
2023-05-06T16:21:54.345Z,18.60
2023-05-06T16:26:58.347Z,18.72
2023-05-06T16:32:01.217Z,18.44
2023-05-06T16:37:03.834Z,18.47
2023-05-06T16:42:08.270Z,18.47
2023-05-06T16:47:13.599Z,18.54
2023-05-06T16:52:17.809Z,18.40
2023-05-06T16:57:21.772Z,18.42
2023-05-06T17:02:24.389Z,18.45
2023-05-06T17:07:26.981Z,18.40
2023-05-06T17:12:30.895Z,18.26
2023-05-06T17:17:33.507Z,18.28
2023-05-06T17:22:36.194Z,18.26
2023-05-06T17:27:40.098Z,18.21
2023-05-06T17:32:42.969Z,17.95
2023-05-06T17:37:46.233Z,17.45
2023-05-06T17:42:50.125Z,17.97
2023-05-06T17:47:52.773Z,17.51
2023-05-06T17:52:55.391Z,18.00
2023-05-06T17:57:59.547Z,17.90
2023-05-06T18:03:02.184Z,17.98
2023-05-06T18:08:06.576Z,18.01
2023-05-06T18:13:10.584Z,17.97
2023-05-06T18:18:13.227Z,17.85
2023-05-06T18:23:15.820Z,17.91
2023-05-06T18:28:19.866Z,17.71
2023-05-06T18:33:22.678Z,17.72
2023-05-06T18:38:26.414Z,17.70
2023-05-06T18:43:31.159Z,17.72
2023-05-06T18:48:33.764Z,17.60
2023-05-06T18:53:36.438Z,17.50
2023-05-06T18:58:41.977Z,17.38
2023-05-06T19:03:44.829Z,17.30
2023-05-06T19:08:47.579Z,17.30
2023-05-06T19:13:52.795Z,17.44
2023-05-06T19:18:55.501Z,17.33
2023-05-06T19:23:59.711Z,17.26
2023-05-06T19:29:03.605Z,17.09
2023-05-06T19:34:06.188Z,17.06
2023-05-06T19:39:09.143Z,16.98
2023-05-06T19:44:13.041Z,17.22
2023-05-06T19:49:15.580Z,17.13
2023-05-06T19:54:19.778Z,16.99
2023-05-06T19:59:23.742Z,17.04
2023-05-06T20:04:26.301Z,16.88
2023-05-06T20:09:28.854Z,16.83
2023-05-06T20:14:33.289Z,17.05
2023-05-06T20:19:35.839Z,16.99
2023-05-06T20:24:38.792Z,16.91
2023-05-06T20:29:42.746Z,16.60
2023-05-06T20:34:47.108Z,16.71
2023-05-06T20:39:49.712Z,16.77
2023-05-06T20:44:53.892Z,16.60
2023-05-06T20:49:56.642Z,16.56
2023-05-06T20:54:59.281Z,16.79
2023-05-06T21:00:03.865Z,16.64
2023-05-06T21:05:07.267Z,16.59
2023-05-06T21:10:11.701Z,16.49
2023-05-06T21:15:15.953Z,16.50
2023-05-06T21:20:19.330Z,16.57
2023-05-06T21:25:22.115Z,16.67
2023-05-06T21:30:26.258Z,16.48
2023-05-06T21:35:30.482Z,16.61
2023-05-06T21:40:33.224Z,16.43
2023-05-06T21:45:37.540Z,16.43
2023-05-06T21:50:40.187Z,16.55
2023-05-06T21:55:42.761Z,16.66
2023-05-06T22:00:46.842Z,16.72
2023-05-06T22:05:50.331Z,16.64
2023-05-06T22:10:53.608Z,16.65
2023-05-06T22:15:57.700Z,16.42
2023-05-06T22:21:00.410Z,16.44
2023-05-06T22:26:03.076Z,16.55
2023-05-06T22:31:07.265Z,16.46
2023-05-06T22:36:09.996Z,16.47
2023-05-06T22:41:12.574Z,16.33
2023-05-06T22:46:17.865Z,16.38
2023-05-06T22:51:20.996Z,16.40
2023-05-06T22:56:23.808Z,16.45
2023-05-06T23:01:31.825Z,16.29
2023-05-06T23:06:34.706Z,16.56
2023-05-06T23:11:37.255Z,16.47
2023-05-06T23:16:41.873Z,16.36
2023-05-06T23:21:44.715Z,16.59
2023-05-06T23:26:47.328Z,16.69
2023-05-06T23:31:51.237Z,16.62
2023-05-06T23:36:54.198Z,16.42
2023-05-06T23:42:00.337Z,16.36
2023-05-06T23:47:04.304Z,16.30
2023-05-06T23:52:06.864Z,16.38
2023-05-06T23:57:09.425Z,16.61
